sensor_id;sensor_type;location;lat;lon;timestamp;P1;durP1;ratioP1;P2;durP2;ratioP2
1999;SDS011;1001;48.87406500;9.59633600;2022-08-19T00:01:13;16.37;;;14.83;;
1999;SDS011;1001;48.87406500;9.59633600;2022-08-19T00:03:39;17.33;;;15.53;;
1999;SDS011;1001;48.87406500;9.59633600;2022-08-19T00:06:06;17.97;;;16.13;;
1999;SDS011;1001;48.87406500;9.59633600;2022-08-19T00:08:33;18.43;;;16.33;;
1999;SDS011;1001;48.87406500;9.59633600;2022-08-19T00:11:00;21.53;;;16.60;;
1999;SDS011;1001;48.87406500;9.59633600;2022-08-19T00:13:28;18.33;;;16.43;;
1999;SDS011;1001;48.87406500;9.59633600;2022-08-19T00:15:55;16.50;;;14.83;;
1999;SDS011;1001;48.87406500;9.59633600;2022-08-19T00:18:23;17.17;;;14.27;;
1999;SDS011;1001;48.87406500;9.59633600;2022-08-19T00:20:50;16.13;;;14.53;;
1999;SDS011;1001;48.87406500;9.59633600;2022-08-19T00:23:17;17.93;;;16.13;;
1999;SDS011;1001;48.87406500;9.59633600;2022-08-19T00:25:44;16.03;;;14.33;;
1999;SDS011;1001;48.87406500;9.59633600;2022-08-19T00:28:11;17.53;;;14.53;;
1999;SDS011;1001;48.87406500;9.59633600;2022-08-19T00:30:39;15.83;;;14.43;;
1999;SDS011;1001;48.87406500;9.59633600;2022-08-19T00:33:06;16.47;;;14.87;;
1999;SDS011;1001;48.87406500;9.59633600;2022-08-19T00:35:33;16.67;;;14.90;;
1999;SDS011;1001;48.87406500;9.59633600;2022-08-19T00:38:00;16.20;;;14.50;;
1999;SDS011;1001;48.87406500;9.59633600;2022-08-19T00:40:27;21.43;;;14.57;;
1999;SDS011;1001;48.87406500;9.59633600;2022-08-19T00:42:55;16.27;;;14.63;;
1999;SDS011;1001;48.87406500;9.59633600;2022-08-19T00:45:23;16.53;;;14.83;;
1999;SDS011;1001;48.87406500;9.59633600;2022-08-19T00:47:53;15.43;;;14.03;;
1999;SDS011;1001;48.87406500;9.59633600;2022-08-19T00:50:20;17.20;;;15.50;;
1999;SDS011;1001;48.87406500;9.59633600;2022-08-19T00:52:49;16.77;;;15.27;;
1999;SDS011;1001;48.87406500;9.59633600;2022-08-19T00:55:17;18.00;;;16.20;;
1999;SDS011;1001;48.87406500;9.59633600;2022-08-19T00:57:48;15.83;;;14.33;;
1999;SDS011;1001;48.87406500;9.59633600;2022-08-19T01:00:19;18.10;;;15.80;;
1999;SDS011;1001;48.87406500;9.59633600;2022-08-19T01:02:49;17.27;;;15.43;;
1999;SDS011;1001;48.87406500;9.59633600;2022-08-19T01:05:18;16.23;;;14.70;;
1999;SDS011;1001;48.87406500;9.59633600;2022-08-19T01:07:48;18.13;;;16.20;;
1999;SDS011;1001;48.87406500;9.59633600;2022-08-19T01:10:16;17.30;;;15.60;;
1999;SDS011;1001;48.87406500;9.59633600;2022-08-19T01:12:45;17.30;;;15.60;;
1999;SDS011;1001;48.87406500;9.59633600;2022-08-19T01:15:14;17.77;;;15.97;;
1999;SDS011;1001;48.87406500;9.59633600;2022-08-19T01:17:43;15.60;;;14.10;;
1999;SDS011;1001;48.87406500;9.59633600;2022-08-19T01:20:12;18.13;;;15.30;;
1999;SDS011;1001;48.87406500;9.59633600;2022-08-19T01:22:44;17.83;;;15.20;;
1999;SDS011;1001;48.87406500;9.59633600;2022-08-19T01:25:13;18.20;;;16.30;;
1999;SDS011;1001;48.87406500;9.59633600;2022-08-19T01:27:41;17.57;;;15.57;;
1999;SDS011;1001;48.87406500;9.59633600;2022-08-19T01:30:10;17.17;;;15.40;;
1999;SDS011;1001;48.87406500;9.59633600;2022-08-19T01:32:38;17.03;;;15.07;;
1999;SDS011;1001;48.87406500;9.59633600;2022-08-19T01:35:05;16.60;;;14.90;;
1999;SDS011;1001;48.87406500;9.59633600;2022-08-19T01:37:42;16.87;;;15.07;;
1999;SDS011;1001;48.87406500;9.59633600;2022-08-19T01:40:10;20.27;;;17.20;;
1999;SDS011;1001;48.87406500;9.59633600;2022-08-19T01:42:38;18.83;;;16.93;;
1999;SDS011;1001;48.87406500;9.59633600;2022-08-19T01:45:05;18.00;;;16.20;;
1999;SDS011;1001;48.87406500;9.59633600;2022-08-19T01:47:33;17.40;;;15.70;;
1999;SDS011;1001;48.87406500;9.59633600;2022-08-19T01:50:01;17.63;;;15.83;;
1999;SDS011;1001;48.87406500;9.59633600;2022-08-19T01:52:27;19.00;;;17.00;;
1999;SDS011;1001;48.87406500;9.59633600;2022-08-19T01:54:56;18.07;;;16.13;;
1999;SDS011;1001;48.87406500;9.59633600;2022-08-19T01:57:22;17.23;;;15.53;;
1999;SDS011;1001;48.87406500;9.59633600;2022-08-19T01:59:49;18.13;;;15.90;;
1999;SDS011;1001;48.87406500;9.59633600;2022-08-19T02:02:16;17.93;;;15.53;;
1999;SDS011;1001;48.87406500;9.59633600;2022-08-19T02:04:43;17.00;;;15.27;;
1999;SDS011;1001;48.87406500;9.59633600;2022-08-19T02:07:10;18.60;;;16.37;;
1999;SDS011;1001;48.87406500;9.59633600;2022-08-19T02:09:37;17.97;;;16.00;;
1999;SDS011;1001;48.87406500;9.59633600;2022-08-19T02:12:06;20.30;;;17.83;;
1999;SDS011;1001;48.87406500;9.59633600;2022-08-19T02:14:33;18.93;;;17.13;;
1999;SDS011;1001;48.87406500;9.59633600;2022-08-19T02:17:00;18.10;;;16.20;;
1999;SDS011;1001;48.87406500;9.59633600;2022-08-19T02:19:27;20.60;;;18.00;;
1999;SDS011;1001;48.87406500;9.59633600;2022-08-19T02:21:54;19.53;;;17.40;;
1999;SDS011;1001;48.87406500;9.59633600;2022-08-19T02:24:20;20.10;;;18.07;;
1999;SDS011;1001;48.87406500;9.59633600;2022-08-19T02:26:47;19.30;;;17.27;;
1999;SDS011;1001;48.87406500;9.59633600;2022-08-19T02:29:15;19.87;;;17.77;;
1999;SDS011;1001;48.87406500;9.59633600;2022-08-19T02:31:41;23.47;;;19.20;;
1999;SDS011;1001;48.87406500;9.59633600;2022-08-19T02:34:08;20.57;;;18.47;;
1999;SDS011;1001;48.87406500;9.59633600;2022-08-19T02:36:35;21.17;;;18.90;;
1999;SDS011;1001;48.87406500;9.59633600;2022-08-19T02:39:01;21.43;;;18.50;;
1999;SDS011;1001;48.87406500;9.59633600;2022-08-19T02:41:29;20.40;;;17.93;;
1999;SDS011;1001;48.87406500;9.59633600;2022-08-19T02:43:59;21.97;;;19.60;;
1999;SDS011;1001;48.87406500;9.59633600;2022-08-19T02:46:30;19.13;;;17.10;;
1999;SDS011;1001;48.87406500;9.59633600;2022-08-19T02:48:59;19.60;;;17.60;;
1999;SDS011;1001;48.87406500;9.59633600;2022-08-19T02:51:28;19.03;;;16.77;;
1999;SDS011;1001;48.87406500;9.59633600;2022-08-19T02:53:58;19.20;;;16.90;;
1999;SDS011;1001;48.87406500;9.59633600;2022-08-19T02:56:25;21.00;;;17.90;;
1999;SDS011;1001;48.87406500;9.59633600;2022-08-19T02:58:52;18.93;;;16.90;;
1999;SDS011;1001;48.87406500;9.59633600;2022-08-19T03:01:21;20.97;;;18.90;;
1999;SDS011;1001;48.87406500;9.59633600;2022-08-19T03:03:50;22.00;;;18.67;;
1999;SDS011;1001;48.87406500;9.59633600;2022-08-19T03:06:17;20.00;;;17.90;;
1999;SDS011;1001;48.87406500;9.59633600;2022-08-19T03:08:45;21.53;;;19.33;;
1999;SDS011;1001;48.87406500;9.59633600;2022-08-19T03:11:13;21.03;;;18.07;;
1999;SDS011;1001;48.87406500;9.59633600;2022-08-19T03:13:41;20.53;;;18.37;;
1999;SDS011;1001;48.87406500;9.59633600;2022-08-19T03:16:09;21.90;;;19.57;;
1999;SDS011;1001;48.87406500;9.59633600;2022-08-19T03:18:36;21.03;;;17.87;;
1999;SDS011;1001;48.87406500;9.59633600;2022-08-19T03:21:05;20.80;;;18.60;;
1999;SDS011;1001;48.87406500;9.59633600;2022-08-19T03:23:32;21.80;;;19.00;;
1999;SDS011;1001;48.87406500;9.59633600;2022-08-19T03:25:59;23.60;;;19.17;;
1999;SDS011;1001;48.87406500;9.59633600;2022-08-19T03:28:29;21.33;;;19.03;;
1999;SDS011;1001;48.87406500;9.59633600;2022-08-19T03:30:57;19.93;;;17.90;;
1999;SDS011;1001;48.87406500;9.59633600;2022-08-19T03:33:26;20.70;;;18.60;;
1999;SDS011;1001;48.87406500;9.59633600;2022-08-19T03:36:10;21.97;;;19.60;;
1999;SDS011;1001;48.87406500;9.59633600;2022-08-19T03:38:42;23.17;;;19.70;;
1999;SDS011;1001;48.87406500;9.59633600;2022-08-19T03:41:10;24.23;;;18.77;;
1999;SDS011;1001;48.87406500;9.59633600;2022-08-19T03:43:40;23.17;;;20.80;;
1999;SDS011;1001;48.87406500;9.59633600;2022-08-19T03:46:09;23.23;;;18.57;;
1999;SDS011;1001;48.87406500;9.59633600;2022-08-19T03:48:37;23.63;;;20.50;;
1999;SDS011;1001;48.87406500;9.59633600;2022-08-19T03:51:05;21.00;;;18.90;;
1999;SDS011;1001;48.87406500;9.59633600;2022-08-19T03:53:34;22.90;;;19.57;;
1999;SDS011;1001;48.87406500;9.59633600;2022-08-19T03:56:01;21.57;;;19.13;;
1999;SDS011;1001;48.87406500;9.59633600;2022-08-19T03:58:29;22.43;;;20.03;;
1999;SDS011;1001;48.87406500;9.59633600;2022-08-19T04:00:55;21.20;;;18.90;;
1999;SDS011;1001;48.87406500;9.59633600;2022-08-19T04:03:23;22.73;;;19.67;;
1999;SDS011;1001;48.87406500;9.59633600;2022-08-19T04:05:51;25.37;;;21.60;;
1999;SDS011;1001;48.87406500;9.59633600;2022-08-19T04:08:18;25.53;;;21.40;;
1999;SDS011;1001;48.87406500;9.59633600;2022-08-19T04:10:47;25.30;;;20.83;;
1999;SDS011;1001;48.87406500;9.59633600;2022-08-19T04:13:15;24.43;;;20.80;;
1999;SDS011;1001;48.87406500;9.59633600;2022-08-19T04:15:43;24.30;;;19.93;;
1999;SDS011;1001;48.87406500;9.59633600;2022-08-19T04:18:12;25.67;;;20.90;;
1999;SDS011;1001;48.87406500;9.59633600;2022-08-19T04:20:40;23.87;;;20.17;;
1999;SDS011;1001;48.87406500;9.59633600;2022-08-19T04:23:08;21.70;;;19.27;;
1999;SDS011;1001;48.87406500;9.59633600;2022-08-19T04:25:36;27.40;;;20.33;;
1999;SDS011;1001;48.87406500;9.59633600;2022-08-19T04:28:05;26.13;;;19.97;;
1999;SDS011;1001;48.87406500;9.59633600;2022-08-19T04:30:38;25.80;;;21.70;;
1999;SDS011;1001;48.87406500;9.59633600;2022-08-19T04:33:06;24.47;;;20.20;;
1999;SDS011;1001;48.87406500;9.59633600;2022-08-19T04:35:37;27.60;;;21.87;;
1999;SDS011;1001;48.87406500;9.59633600;2022-08-19T04:38:05;25.57;;;21.50;;
1999;SDS011;1001;48.87406500;9.59633600;2022-08-19T04:40:32;29.70;;;23.33;;
1999;SDS011;1001;48.87406500;9.59633600;2022-08-19T04:43:18;25.40;;;22.07;;
1999;SDS011;1001;48.87406500;9.59633600;2022-08-19T04:45:45;27.03;;;22.07;;
1999;SDS011;1001;48.87406500;9.59633600;2022-08-19T04:48:12;28.37;;;23.03;;
1999;SDS011;1001;48.87406500;9.59633600;2022-08-19T04:50:40;25.93;;;21.40;;
1999;SDS011;1001;48.87406500;9.59633600;2022-08-19T04:53:08;27.80;;;23.57;;
1999;SDS011;1001;48.87406500;9.59633600;2022-08-19T04:55:38;26.60;;;22.90;;
1999;SDS011;1001;48.87406500;9.59633600;2022-08-19T04:58:05;28.73;;;23.20;;
1999;SDS011;1001;48.87406500;9.59633600;2022-08-19T05:00:33;24.40;;;20.47;;
1999;SDS011;1001;48.87406500;9.59633600;2022-08-19T05:02:59;29.00;;;22.57;;
1999;SDS011;1001;48.87406500;9.59633600;2022-08-19T05:05:27;28.10;;;21.93;;
1999;SDS011;1001;48.87406500;9.59633600;2022-08-19T05:07:53;25.50;;;21.50;;
1999;SDS011;1001;48.87406500;9.59633600;2022-08-19T05:10:20;27.90;;;21.37;;
1999;SDS011;1001;48.87406500;9.59633600;2022-08-19T05:12:47;26.83;;;22.40;;
1999;SDS011;1001;48.87406500;9.59633600;2022-08-19T05:15:14;26.50;;;22.00;;
1999;SDS011;1001;48.87406500;9.59633600;2022-08-19T05:17:42;25.90;;;22.67;;
1999;SDS011;1001;48.87406500;9.59633600;2022-08-19T05:20:29;25.40;;;21.90;;
1999;SDS011;1001;48.87406500;9.59633600;2022-08-19T05:23:13;24.97;;;21.13;;
1999;SDS011;1001;48.87406500;9.59633600;2022-08-19T05:25:40;31.87;;;21.80;;
1999;SDS011;1001;48.87406500;9.59633600;2022-08-19T05:28:07;26.40;;;20.60;;
1999;SDS011;1001;48.87406500;9.59633600;2022-08-19T05:30:34;24.17;;;21.00;;
1999;SDS011;1001;48.87406500;9.59633600;2022-08-19T05:33:02;26.53;;;22.37;;
1999;SDS011;1001;48.87406500;9.59633600;2022-08-19T05:35:28;29.20;;;21.33;;
1999;SDS011;1001;48.87406500;9.59633600;2022-08-19T05:37:55;26.40;;;21.37;;
1999;SDS011;1001;48.87406500;9.59633600;2022-08-19T05:40:22;29.37;;;21.73;;
1999;SDS011;1001;48.87406500;9.59633600;2022-08-19T05:42:49;27.80;;;22.67;;
1999;SDS011;1001;48.87406500;9.59633600;2022-08-19T05:45:15;27.00;;;21.73;;
1999;SDS011;1001;48.87406500;9.59633600;2022-08-19T05:47:42;24.60;;;21.07;;
1999;SDS011;1001;48.87406500;9.59633600;2022-08-19T05:50:11;26.80;;;21.37;;
1999;SDS011;1001;48.87406500;9.59633600;2022-08-19T05:52:38;27.23;;;23.00;;
1999;SDS011;1001;48.87406500;9.59633600;2022-08-19T05:55:05;26.70;;;20.90;;
1999;SDS011;1001;48.87406500;9.59633600;2022-08-19T05:57:32;27.83;;;21.77;;
1999;SDS011;1001;48.87406500;9.59633600;2022-08-19T05:59:59;25.97;;;20.67;;
1999;SDS011;1001;48.87406500;9.59633600;2022-08-19T06:02:27;27.07;;;21.00;;
1999;SDS011;1001;48.87406500;9.59633600;2022-08-19T06:04:55;29.50;;;21.30;;
1999;SDS011;1001;48.87406500;9.59633600;2022-08-19T06:07:23;25.70;;;20.30;;
1999;SDS011;1001;48.87406500;9.59633600;2022-08-19T06:09:50;31.60;;;22.27;;
1999;SDS011;1001;48.87406500;9.59633600;2022-08-19T06:12:17;27.90;;;23.67;;
1999;SDS011;1001;48.87406500;9.59633600;2022-08-19T06:14:43;30.10;;;23.67;;
1999;SDS011;1001;48.87406500;9.59633600;2022-08-19T06:17:10;31.27;;;25.30;;
1999;SDS011;1001;48.87406500;9.59633600;2022-08-19T06:19:38;32.60;;;22.40;;
1999;SDS011;1001;48.87406500;9.59633600;2022-08-19T06:22:05;30.67;;;24.20;;
1999;SDS011;1001;48.87406500;9.59633600;2022-08-19T06:24:33;34.47;;;25.17;;
1999;SDS011;1001;48.87406500;9.59633600;2022-08-19T06:27:02;32.23;;;25.00;;
1999;SDS011;1001;48.87406500;9.59633600;2022-08-19T06:29:30;32.40;;;26.10;;
1999;SDS011;1001;48.87406500;9.59633600;2022-08-19T06:31:58;37.27;;;25.80;;
1999;SDS011;1001;48.87406500;9.59633600;2022-08-19T06:34:27;34.90;;;27.07;;
1999;SDS011;1001;48.87406500;9.59633600;2022-08-19T06:36:55;32.90;;;25.00;;
1999;SDS011;1001;48.87406500;9.59633600;2022-08-19T06:39:26;39.13;;;28.50;;
1999;SDS011;1001;48.87406500;9.59633600;2022-08-19T06:41:57;35.00;;;26.00;;
1999;SDS011;1001;48.87406500;9.59633600;2022-08-19T06:44:28;31.67;;;25.03;;
1999;SDS011;1001;48.87406500;9.59633600;2022-08-19T06:46:56;31.20;;;25.73;;
1999;SDS011;1001;48.87406500;9.59633600;2022-08-19T06:49:23;30.70;;;24.10;;
1999;SDS011;1001;48.87406500;9.59633600;2022-08-19T06:51:55;37.00;;;26.77;;
1999;SDS011;1001;48.87406500;9.59633600;2022-08-19T06:54:24;29.53;;;23.50;;
1999;SDS011;1001;48.87406500;9.59633600;2022-08-19T06:56:51;32.03;;;25.87;;
1999;SDS011;1001;48.87406500;9.59633600;2022-08-19T06:59:20;37.00;;;25.53;;
1999;SDS011;1001;48.87406500;9.59633600;2022-08-19T07:01:53;32.83;;;24.57;;
1999;SDS011;1001;48.87406500;9.59633600;2022-08-19T07:04:23;38.23;;;26.17;;
1999;SDS011;1001;48.87406500;9.59633600;2022-08-19T07:06:56;34.80;;;27.10;;
1999;SDS011;1001;48.87406500;9.59633600;2022-08-19T07:09:25;34.40;;;26.47;;
1999;SDS011;1001;48.87406500;9.59633600;2022-08-19T07:11:52;31.00;;;26.80;;
1999;SDS011;1001;48.87406500;9.59633600;2022-08-19T07:14:22;32.03;;;25.43;;
1999;SDS011;1001;48.87406500;9.59633600;2022-08-19T07:16:51;34.03;;;25.80;;
1999;SDS011;1001;48.87406500;9.59633600;2022-08-19T07:19:20;34.67;;;27.97;;
1999;SDS011;1001;48.87406500;9.59633600;2022-08-19T07:21:48;34.97;;;26.03;;
1999;SDS011;1001;48.87406500;9.59633600;2022-08-19T07:24:18;35.60;;;25.83;;
1999;SDS011;1001;48.87406500;9.59633600;2022-08-19T07:26:45;35.33;;;26.73;;
1999;SDS011;1001;48.87406500;9.59633600;2022-08-19T07:29:12;36.50;;;28.87;;
1999;SDS011;1001;48.87406500;9.59633600;2022-08-19T07:31:40;34.57;;;27.27;;
1999;SDS011;1001;48.87406500;9.59633600;2022-08-19T07:34:07;37.70;;;27.30;;
1999;SDS011;1001;48.87406500;9.59633600;2022-08-19T07:36:36;39.47;;;27.93;;
1999;SDS011;1001;48.87406500;9.59633600;2022-08-19T07:39:10;34.73;;;26.50;;
1999;SDS011;1001;48.87406500;9.59633600;2022-08-19T07:41:38;37.43;;;26.23;;
1999;SDS011;1001;48.87406500;9.59633600;2022-08-19T07:44:06;38.80;;;27.00;;
1999;SDS011;1001;48.87406500;9.59633600;2022-08-19T07:46:35;37.07;;;26.53;;
1999;SDS011;1001;48.87406500;9.59633600;2022-08-19T07:49:05;33.57;;;25.77;;
1999;SDS011;1001;48.87406500;9.59633600;2022-08-19T07:51:33;34.93;;;27.87;;
1999;SDS011;1001;48.87406500;9.59633600;2022-08-19T07:54:00;35.93;;;27.00;;
1999;SDS011;1001;48.87406500;9.59633600;2022-08-19T07:56:27;34.07;;;27.97;;
1999;SDS011;1001;48.87406500;9.59633600;2022-08-19T07:58:53;31.60;;;26.67;;
1999;SDS011;1001;48.87406500;9.59633600;2022-08-19T08:01:22;33.87;;;25.77;;
1999;SDS011;1001;48.87406500;9.59633600;2022-08-19T08:03:51;30.53;;;24.97;;
1999;SDS011;1001;48.87406500;9.59633600;2022-08-19T08:06:38;32.40;;;26.70;;
1999;SDS011;1001;48.87406500;9.59633600;2022-08-19T08:09:23;32.47;;;26.73;;
1999;SDS011;1001;48.87406500;9.59633600;2022-08-19T08:11:54;37.13;;;28.10;;
1999;SDS011;1001;48.87406500;9.59633600;2022-08-19T08:14:25;38.63;;;28.20;;
1999;SDS011;1001;48.87406500;9.59633600;2022-08-19T08:16:53;36.50;;;27.63;;
1999;SDS011;1001;48.87406500;9.59633600;2022-08-19T08:19:22;37.73;;;27.77;;
1999;SDS011;1001;48.87406500;9.59633600;2022-08-19T08:21:51;33.60;;;27.20;;
1999;SDS011;1001;48.87406500;9.59633600;2022-08-19T08:24:19;37.07;;;29.73;;
1999;SDS011;1001;48.87406500;9.59633600;2022-08-19T08:26:46;33.20;;;26.43;;
1999;SDS011;1001;48.87406500;9.59633600;2022-08-19T08:29:13;39.43;;;29.60;;
1999;SDS011;1001;48.87406500;9.59633600;2022-08-19T08:31:41;35.40;;;27.10;;
1999;SDS011;1001;48.87406500;9.59633600;2022-08-19T08:34:09;33.80;;;26.47;;
1999;SDS011;1001;48.87406500;9.59633600;2022-08-19T08:36:37;37.40;;;28.80;;
1999;SDS011;1001;48.87406500;9.59633600;2022-08-19T08:39:08;36.20;;;28.50;;
1999;SDS011;1001;48.87406500;9.59633600;2022-08-19T08:41:37;36.53;;;28.67;;
1999;SDS011;1001;48.87406500;9.59633600;2022-08-19T08:44:11;38.37;;;27.27;;
1999;SDS011;1001;48.87406500;9.59633600;2022-08-19T08:46:42;34.33;;;25.30;;
1999;SDS011;1001;48.87406500;9.59633600;2022-08-19T08:49:16;35.70;;;28.27;;
1999;SDS011;1001;48.87406500;9.59633600;2022-08-19T08:51:51;39.00;;;27.60;;
1999;SDS011;1001;48.87406500;9.59633600;2022-08-19T08:54:27;35.20;;;25.97;;
1999;SDS011;1001;48.87406500;9.59633600;2022-08-19T08:56:58;34.73;;;28.00;;
1999;SDS011;1001;48.87406500;9.59633600;2022-08-19T08:59:26;37.50;;;26.87;;
1999;SDS011;1001;48.87406500;9.59633600;2022-08-19T09:01:57;31.67;;;26.07;;
1999;SDS011;1001;48.87406500;9.59633600;2022-08-19T09:04:24;31.67;;;27.30;;
1999;SDS011;1001;48.87406500;9.59633600;2022-08-19T09:06:51;28.43;;;24.23;;
1999;SDS011;1001;48.87406500;9.59633600;2022-08-19T09:09:30;33.33;;;26.07;;
1999;SDS011;1001;48.87406500;9.59633600;2022-08-19T09:12:03;36.63;;;26.60;;
1999;SDS011;1001;48.87406500;9.59633600;2022-08-19T09:14:37;33.00;;;25.20;;
1999;SDS011;1001;48.87406500;9.59633600;2022-08-19T09:17:11;29.20;;;26.03;;
1999;SDS011;1001;48.87406500;9.59633600;2022-08-19T09:19:46;34.80;;;26.33;;
1999;SDS011;1001;48.87406500;9.59633600;2022-08-19T09:22:16;28.70;;;24.70;;
1999;SDS011;1001;48.87406500;9.59633600;2022-08-19T09:24:48;28.70;;;23.43;;
1999;SDS011;1001;48.87406500;9.59633600;2022-08-19T09:27:15;28.57;;;23.90;;
1999;SDS011;1001;48.87406500;9.59633600;2022-08-19T09:29:42;31.67;;;24.87;;
1999;SDS011;1001;48.87406500;9.59633600;2022-08-19T09:32:08;33.10;;;25.77;;
1999;SDS011;1001;48.87406500;9.59633600;2022-08-19T09:34:35;27.93;;;23.63;;
1999;SDS011;1001;48.87406500;9.59633600;2022-08-19T09:37:02;34.17;;;24.40;;
1999;SDS011;1001;48.87406500;9.59633600;2022-08-19T09:39:30;28.47;;;23.97;;
1999;SDS011;1001;48.87406500;9.59633600;2022-08-19T09:41:58;34.03;;;24.33;;
1999;SDS011;1001;48.87406500;9.59633600;2022-08-19T09:44:25;27.60;;;23.80;;
1999;SDS011;1001;48.87406500;9.59633600;2022-08-19T09:46:51;33.30;;;26.00;;
1999;SDS011;1001;48.87406500;9.59633600;2022-08-19T09:49:18;29.60;;;23.00;;
1999;SDS011;1001;48.87406500;9.59633600;2022-08-19T09:51:48;33.47;;;26.20;;
1999;SDS011;1001;48.87406500;9.59633600;2022-08-19T09:54:15;29.30;;;24.27;;
1999;SDS011;1001;48.87406500;9.59633600;2022-08-19T09:56:42;32.50;;;24.90;;
1999;SDS011;1001;48.87406500;9.59633600;2022-08-19T09:59:10;33.90;;;25.43;;
1999;SDS011;1001;48.87406500;9.59633600;2022-08-19T10:01:37;36.10;;;25.33;;
1999;SDS011;1001;48.87406500;9.59633600;2022-08-19T10:04:04;28.13;;;22.33;;
1999;SDS011;1001;48.87406500;9.59633600;2022-08-19T10:06:33;34.33;;;26.57;;
1999;SDS011;1001;48.87406500;9.59633600;2022-08-19T10:09:00;37.20;;;27.70;;
1999;SDS011;1001;48.87406500;9.59633600;2022-08-19T10:11:29;32.20;;;24.50;;
1999;SDS011;1001;48.87406500;9.59633600;2022-08-19T10:13:56;34.17;;;25.47;;
1999;SDS011;1001;48.87406500;9.59633600;2022-08-19T10:16:24;36.33;;;26.27;;
1999;SDS011;1001;48.87406500;9.59633600;2022-08-19T10:18:51;33.80;;;28.00;;
1999;SDS011;1001;48.87406500;9.59633600;2022-08-19T10:21:19;38.37;;;28.37;;
1999;SDS011;1001;48.87406500;9.59633600;2022-08-19T10:23:49;29.50;;;23.97;;
1999;SDS011;1001;48.87406500;9.59633600;2022-08-19T10:26:18;34.10;;;26.33;;
1999;SDS011;1001;48.87406500;9.59633600;2022-08-19T10:28:47;29.50;;;23.77;;
1999;SDS011;1001;48.87406500;9.59633600;2022-08-19T10:31:15;36.80;;;25.13;;
1999;SDS011;1001;48.87406500;9.59633600;2022-08-19T10:33:46;28.87;;;24.37;;
1999;SDS011;1001;48.87406500;9.59633600;2022-08-19T10:36:13;30.13;;;23.70;;
1999;SDS011;1001;48.87406500;9.59633600;2022-08-19T10:38:43;32.10;;;25.60;;
1999;SDS011;1001;48.87406500;9.59633600;2022-08-19T10:41:12;32.40;;;25.73;;
1999;SDS011;1001;48.87406500;9.59633600;2022-08-19T10:43:39;29.93;;;24.70;;
1999;SDS011;1001;48.87406500;9.59633600;2022-08-19T10:46:07;30.90;;;24.97;;
1999;SDS011;1001;48.87406500;9.59633600;2022-08-19T10:48:36;28.07;;;23.70;;
1999;SDS011;1001;48.87406500;9.59633600;2022-08-19T10:51:04;28.30;;;24.60;;
1999;SDS011;1001;48.87406500;9.59633600;2022-08-19T10:53:49;27.57;;;23.90;;
1999;SDS011;1001;48.87406500;9.59633600;2022-08-19T10:56:17;30.17;;;24.20;;
1999;SDS011;1001;48.87406500;9.59633600;2022-08-19T10:59:02;26.27;;;21.80;;
1999;SDS011;1001;48.87406500;9.59633600;2022-08-19T11:01:30;25.00;;;22.37;;
1999;SDS011;1001;48.87406500;9.59633600;2022-08-19T11:03:59;25.40;;;21.80;;
1999;SDS011;1001;48.87406500;9.59633600;2022-08-19T11:06:27;29.43;;;22.37;;
1999;SDS011;1001;48.87406500;9.59633600;2022-08-19T11:08:55;32.53;;;22.87;;
1999;SDS011;1001;48.87406500;9.59633600;2022-08-19T11:11:22;33.27;;;23.40;;
1999;SDS011;1001;48.87406500;9.59633600;2022-08-19T11:13:49;27.27;;;22.73;;
1999;SDS011;1001;48.87406500;9.59633600;2022-08-19T11:16:16;26.87;;;22.93;;
1999;SDS011;1001;48.87406500;9.59633600;2022-08-19T11:18:46;27.80;;;24.20;;
1999;SDS011;1001;48.87406500;9.59633600;2022-08-19T11:21:15;27.73;;;24.50;;
1999;SDS011;1001;48.87406500;9.59633600;2022-08-19T11:23:45;27.33;;;22.50;;
1999;SDS011;1001;48.87406500;9.59633600;2022-08-19T11:26:13;25.23;;;22.10;;
1999;SDS011;1001;48.87406500;9.59633600;2022-08-19T11:28:40;25.20;;;21.17;;
1999;SDS011;1001;48.87406500;9.59633600;2022-08-19T11:31:09;28.10;;;22.43;;
1999;SDS011;1001;48.87406500;9.59633600;2022-08-19T11:33:37;27.00;;;22.00;;
1999;SDS011;1001;48.87406500;9.59633600;2022-08-19T11:36:03;26.57;;;22.07;;
1999;SDS011;1001;48.87406500;9.59633600;2022-08-19T11:38:30;28.43;;;23.77;;
1999;SDS011;1001;48.87406500;9.59633600;2022-08-19T11:41:00;24.80;;;20.77;;
1999;SDS011;1001;48.87406500;9.59633600;2022-08-19T11:43:29;24.73;;;21.93;;
1999;SDS011;1001;48.87406500;9.59633600;2022-08-19T11:45:56;30.17;;;25.13;;
1999;SDS011;1001;48.87406500;9.59633600;2022-08-19T11:48:23;27.40;;;22.93;;
1999;SDS011;1001;48.87406500;9.59633600;2022-08-19T11:50:51;27.63;;;24.67;;
1999;SDS011;1001;48.87406500;9.59633600;2022-08-19T11:53:20;27.50;;;23.87;;
1999;SDS011;1001;48.87406500;9.59633600;2022-08-19T11:55:47;32.20;;;26.07;;
1999;SDS011;1001;48.87406500;9.59633600;2022-08-19T11:58:16;31.53;;;24.80;;
1999;SDS011;1001;48.87406500;9.59633600;2022-08-19T12:00:43;29.83;;;24.80;;
1999;SDS011;1001;48.87406500;9.59633600;2022-08-19T12:03:11;30.47;;;25.40;;
1999;SDS011;1001;48.87406500;9.59633600;2022-08-19T12:05:38;32.97;;;25.70;;
1999;SDS011;1001;48.87406500;9.59633600;2022-08-19T12:08:06;31.30;;;25.20;;
1999;SDS011;1001;48.87406500;9.59633600;2022-08-19T12:10:34;28.37;;;24.70;;
1999;SDS011;1001;48.87406500;9.59633600;2022-08-19T12:13:02;33.47;;;25.20;;
1999;SDS011;1001;48.87406500;9.59633600;2022-08-19T12:15:30;30.93;;;25.53;;
1999;SDS011;1001;48.87406500;9.59633600;2022-08-19T12:18:01;28.50;;;25.57;;
1999;SDS011;1001;48.87406500;9.59633600;2022-08-19T12:20:28;28.60;;;25.30;;
1999;SDS011;1001;48.87406500;9.59633600;2022-08-19T12:22:55;29.57;;;24.83;;
1999;SDS011;1001;48.87406500;9.59633600;2022-08-19T12:25:21;32.23;;;26.57;;
1999;SDS011;1001;48.87406500;9.59633600;2022-08-19T12:27:48;29.07;;;23.50;;
1999;SDS011;1001;48.87406500;9.59633600;2022-08-19T12:30:15;29.10;;;24.83;;
1999;SDS011;1001;48.87406500;9.59633600;2022-08-19T12:32:43;29.53;;;23.87;;
1999;SDS011;1001;48.87406500;9.59633600;2022-08-19T12:35:10;29.30;;;24.77;;
1999;SDS011;1001;48.87406500;9.59633600;2022-08-19T12:37:37;28.13;;;23.30;;
1999;SDS011;1001;48.87406500;9.59633600;2022-08-19T12:40:09;27.10;;;21.93;;
1999;SDS011;1001;48.87406500;9.59633600;2022-08-19T12:42:37;31.63;;;25.50;;
1999;SDS011;1001;48.87406500;9.59633600;2022-08-19T12:45:07;25.87;;;21.53;;
1999;SDS011;1001;48.87406500;9.59633600;2022-08-19T12:47:34;26.30;;;22.07;;
1999;SDS011;1001;48.87406500;9.59633600;2022-08-19T12:50:03;24.93;;;20.60;;
1999;SDS011;1001;48.87406500;9.59633600;2022-08-19T12:52:33;25.23;;;22.17;;
1999;SDS011;1001;48.87406500;9.59633600;2022-08-19T12:55:01;25.70;;;21.57;;
1999;SDS011;1001;48.87406500;9.59633600;2022-08-19T12:57:29;24.37;;;21.47;;